Time;durP1;ratioP1;P1;durP2;ratioP2;P2;SDS_P1;SDS_P2;PMS_P1;PMS_P2;Temp;Humidity;BMP_temperature;BMP_pressure;BME280_temperature;BME280_humidity;BME280_pressure;Samples;Min_cycle;Max_cycle;Signal;HPM_P1;HPM_P2
2021/05/28 00:01:35;;;;;;;;;4.50;4.50;;;;;28.46;67.60;98782.97;4896499;29;8940;-71
2021/05/28 00:04:04;;;;;;;;;4.00;4.00;;;;;28.52;67.85;98803.16;4896450;29;8858;-71
2021/05/28 00:06:33;;;;;;;;;3.75;3.75;;;;;28.61;67.15;98800.81;4896523;29;8877;-71
2021/05/28 00:09:02;;;;;;;;;5.00;5.00;;;;;28.63;67.51;98816.72;4896317;29;8869;-71
2021/05/28 00:11:34;;;;;;;;;5.25;5.25;;;;;28.67;67.58;98818.28;4899348;29;8880;-71
2021/05/28 00:14:03;;;;;;;;;4.75;4.75;;;;;28.71;67.12;98812.84;4899875;29;8896;-71
2021/05/28 00:16:32;;;;;;;;;6.00;6.00;;;;;28.67;67.55;98814.78;4899526;29;8857;-70
2021/05/28 00:19:00;;;;;;;;;6.50;6.50;;;;;28.73;67.10;98819.44;4899636;29;8930;-71
2021/05/28 00:21:29;;;;;;;;;3.75;3.75;;;;;28.75;66.13;98822.56;4899884;29;8948;-71
2021/05/28 00:23:58;;;;;;;;;5.00;5.00;;;;;28.71;66.78;98813.63;4899621;29;9619;-71
2021/05/28 00:26:27;;;;;;;;;6.75;6.75;;;;;28.80;65.95;98826.81;4899642;29;8877;-71
2021/05/28 00:28:55;;;;;;;;;6.00;5.75;;;;;28.81;66.27;98826.44;4899539;29;8853;-71
2021/05/28 00:31:25;;;;;;;;;5.25;5.25;;;;;28.82;66.59;98829.94;4899511;29;8873;-71
2021/05/28 00:33:53;;;;;;;;;5.50;5.50;;;;;28.86;66.25;98836.94;4899407;29;8952;-71
2021/05/28 00:36:22;;;;;;;;;4.25;4.25;;;;;28.88;66.86;98831.13;4899465;29;8962;-71
2021/05/28 00:38:51;;;;;;;;;6.00;6.00;;;;;28.90;66.24;98835.00;4899232;29;8869;-71
2021/05/28 00:41:20;;;;;;;;;4.75;4.75;;;;;28.90;66.74;98831.50;4899318;29;8877;-71
2021/05/28 00:43:48;;;;;;;;;8.00;7.00;;;;;28.93;66.34;98840.81;4899524;29;9138;-71
2021/05/28 00:46:17;;;;;;;;;5.00;5.00;;;;;28.96;66.33;98832.69;4899445;29;8908;-70
2021/05/28 00:48:48;;;;;;;;;7.50;7.50;;;;;28.96;67.13;98835.41;4899453;29;8861;-72
2021/05/28 00:51:17;;;;;;;;;6.50;6.50;;;;;28.98;66.78;98832.31;4898808;29;8896;-72
2021/05/28 00:53:46;;;;;;;;;3.00;3.00;;;;;29.03;65.53;98848.97;4898773;29;8858;-72
2021/05/28 00:56:16;;;;;;;;;7.00;7.00;;;;;28.91;65.72;98830.34;4898648;29;8872;-71
2021/05/28 00:58:48;;;;;;;;;4.50;4.50;;;;;29.11;65.35;98841.63;4897833;29;8945;-74
2021/05/28 01:01:17;;;;;;;;;8.25;6.50;;;;;29.16;66.07;98852.88;4898026;29;8869;-73
2021/05/28 01:03:46;;;;;;;;;5.00;5.00;;;;;29.24;65.62;98856.38;4898045;29;8873;-75
2021/05/28 01:06:14;;;;;;;;;9.50;9.50;;;;;29.30;65.14;98854.81;4898433;29;8873;-73
2021/05/28 01:08:43;;;;;;;;;10.00;10.00;;;;;29.37;64.89;98864.91;4897087;29;8881;-72
2021/05/28 01:11:12;;;;;;;;;9.00;9.00;;;;;29.43;65.63;98860.66;4897581;29;8887;-75
2021/05/28 01:13:40;;;;;;;;;4.00;4.00;;;;;29.41;64.76;98852.09;4897647;29;9615;-72
2021/05/28 01:16:09;;;;;;;;;7.75;7.75;;;;;29.49;65.19;98865.31;4897238;29;8889;-72
2021/05/28 01:18:38;;;;;;;;;6.25;6.25;;;;;29.52;64.35;98866.47;4895873;29;8873;-73
2021/05/28 01:21:08;;;;;;;;;7.75;7.75;;;;;29.52;64.95;98858.31;4897365;29;8904;-72
2021/05/28 01:23:37;;;;;;;;;7.20;7.20;;;;;29.57;64.63;98876.19;4897461;29;8948;-76
2021/05/28 01:26:07;;;;;;;;;8.25;8.25;;;;;29.58;64.06;98883.94;4897377;29;8857;-73
2021/05/28 01:28:36;;;;;;;;;6.75;6.75;;;;;29.60;64.42;98869.97;4896538;29;8861;-73
2021/05/28 01:31:05;;;;;;;;;8.50;8.50;;;;;29.60;64.75;98876.19;4897382;29;8877;-73
2021/05/28 01:33:34;;;;;;;;;6.25;6.25;;;;;29.57;64.20;98874.25;4897394;29;8861;-72
2021/05/28 01:36:03;;;;;;;;;6.50;6.50;;;;;29.61;64.60;98877.72;4897146;29;8861;-72
2021/05/28 01:38:31;;;;;;;;;5.50;5.50;;;;;29.63;64.07;98883.56;4897902;29;8984;-76
2021/05/28 01:41:00;;;;;;;;;7.25;7.25;;;;;29.62;63.77;98884.72;4926897;29;9626;-73
2021/05/28 01:43:30;;;;;;;;;4.75;4.75;;;;;29.64;63.75;98887.03;4896773;29;8881;-73
2021/05/28 01:45:59;;;;;;;;;9.00;9.00;;;;;29.67;65.10;98892.47;4897134;29;8877;-72
2021/05/28 01:48:27;;;;;;;;;10.25;10.25;;;;;29.62;65.33;98886.66;4896522;29;8884;-74
2021/05/28 01:50:56;;;;;;;;;6.75;6.75;;;;;29.64;65.48;98904.13;4896754;29;8873;-75
2021/05/28 01:53:27;;;;;;;;;7.25;7.25;;;;;29.65;64.22;98905.69;4896990;29;8953;-75
2021/05/28 01:55:56;;;;;;;;;5.50;5.50;;;;;29.60;64.51;98906.06;4897122;29;8884;-75
2021/05/28 01:58:26;;;;;;;;;8.75;8.75;;;;;29.67;64.67;98913.44;4896032;29;8948;-73
2021/05/28 02:00:58;;;;;;;;;6.75;6.75;;;;;29.71;64.57;98912.28;4896168;29;8968;-74
2021/05/28 02:03:27;;;;;;;;;8.25;8.25;;;;;29.71;64.86;98917.72;4896649;29;8980;-72
2021/05/28 02:05:57;;;;;;;;;6.00;6.00;;;;;29.74;64.35;98910.72;4897064;29;8857;-71
2021/05/28 02:08:26;;;;;;;;;5.00;5.00;;;;;29.73;64.44;98915.38;4901280;29;8854;-75
2021/05/28 02:10:55;;;;;;;;;5.75;5.75;;;;;29.69;64.14;98903.75;4913093;29;8863;-75
2021/05/28 02:13:23;;;;;;;;;6.00;6.00;;;;;29.86;63.58;98919.25;4914465;29;8859;-72
2021/05/28 02:15:52;;;;;;;;;6.75;6.75;;;;;29.90;64.36;98918.47;4915320;29;8866;-71
2021/05/28 02:18:22;;;;;;;;;5.80;5.80;;;;;29.92;63.77;98921.53;4914990;29;8946;-72
2021/05/28 02:20:51;;;;;;;;;6.40;6.40;;;;;29.94;63.13;98913.78;4914289;29;8867;-72
2021/05/28 02:23:20;;;;;;;;;7.75;7.75;;;;;30.01;64.15;98930.09;4915001;29;8938;-73
2021/05/28 02:25:49;;;;;;;;;7.60;7.60;;;;;30.01;64.24;98925.44;4913563;29;8920;-72
2021/05/28 02:28:17;;;;;;;;;7.00;7.00;;;;;30.04;63.63;98923.88;4914936;29;9013;-72
2021/05/28 02:30:46;;;;;;;;;7.80;7.80;;;;;30.11;63.24;98927.38;4914017;29;8862;-71
2021/05/28 02:33:15;;;;;;;;;7.00;7.00;;;;;30.05;63.60;98909.13;4914071;29;8878;-73
2021/05/28 02:35:44;;;;;;;;;9.50;9.50;;;;;30.24;62.78;98924.22;4913224;29;8879;-71
2021/05/28 02:38:13;;;;;;;;;10.50;8.25;;;;;30.21;62.55;98911.41;4914743;29;8850;-72
2021/05/28 02:40:42;;;;;;;;;13.25;9.50;;;;;30.29;62.46;98921.88;4914300;29;8863;-72
2021/05/28 02:43:10;;;;;;;;;9.00;9.00;;;;;30.30;62.25;98920.69;4912938;29;8946;-74
2021/05/28 02:45:39;;;;;;;;;7.67;7.67;;;;;30.35;62.74;98925.75;4907148;29;9674;-72
2021/05/28 02:48:08;;;;;;;;;9.40;9.40;;;;;30.30;61.78;98915.25;4896688;29;9622;-72
2021/05/28 02:50:37;;;;;;;;;6.80;6.80;;;;;30.38;62.58;98926.91;4904341;29;8853;-72
2021/05/28 02:53:06;;;;;;;;;9.20;9.20;;;;;30.34;61.84;98929.63;4904573;29;8870;-71
2021/05/28 02:55:34;;;;;;;;;6.25;6.25;;;;;30.34;62.27;98920.69;4906645;29;8865;-71
2021/05/28 02:58:03;;;;;;;;;9.75;8.50;;;;;30.37;62.34;98923.41;4905407;29;8859;-71
2021/05/28 03:00:33;;;;;;;;;11.75;11.00;;;;;30.37;62.68;98919.91;4904884;29;8869;-73
2021/05/28 03:03:02;;;;;;;;;9.75;9.75;;;;;30.32;62.70;98912.91;4902866;29;8861;-70
2021/05/28 03:05:30;;;;;;;;;11.50;11.50;;;;;30.46;62.66;98918.31;4903990;29;9024;-71
2021/05/28 03:07:59;;;;;;;;;7.60;7.60;;;;;30.49;62.60;98922.97;4902987;29;8857;-73
2021/05/28 03:10:28;;;;;;;;;7.60;7.60;;;;;30.55;62.61;98922.56;4904106;29;8958;-71
2021/05/28 03:12:57;;;;;;;;;8.60;8.60;;;;;30.56;62.35;98918.66;4906634;29;8851;-73
2021/05/28 03:15:26;;;;;;;;;14.50;14.50;;;;;30.61;62.50;98916.31;4903557;29;8865;-71
2021/05/28 03:17:57;;;;;;;;;6.60;6.60;;;;;30.69;61.99;98927.97;4909918;29;8878;-72
2021/05/28 03:20:34;;;;;;;;;7.40;7.40;;;;;30.61;61.72;98904.66;4912044;29;8875;-72
2021/05/28 03:23:06;;;;;;;;;7.60;7.60;;;;;30.69;61.55;98917.06;4911845;29;8903;-71
2021/05/28 03:25:38;;;;;;;;;5.80;5.80;;;;;30.65;60.74;98910.88;4910238;29;8862;-70
2021/05/28 03:28:07;;;;;;;;;7.40;7.40;;;;;30.68;61.50;98920.97;4912510;29;8871;-71
2021/05/28 03:30:36;;;;;;;;;6.00;6.00;;;;;30.72;60.52;98922.50;4909201;29;8870;-73
2021/05/28 03:33:06;;;;;;;;;7.00;7.00;;;;;30.63;61.94;98903.09;4909802;29;9001;-70
2021/05/28 03:35:35;;;;;;;;;10.40;10.40;;;;;30.82;62.12;98923.63;4912144;29;8851;-72
2021/05/28 03:38:04;;;;;;;;;7.00;7.00;;;;;30.73;61.62;98896.81;4912389;29;8847;-71
2021/05/28 03:40:32;;;;;;;;;8.00;8.00;;;;;30.93;62.06;98909.94;4912216;29;8918;-73
2021/05/28 03:43:04;;;;;;;;;7.40;7.40;;;;;30.93;61.82;98901.75;4911496;29;10030;-74
2021/05/28 03:45:33;;;;;;;;;9.80;9.80;;;;;30.94;61.06;98903.31;4913189;29;8874;-73
2021/05/28 03:48:01;;;;;;;;;7.40;7.40;;;;;31.05;60.86;98909.47;4917832;29;8942;-73
2021/05/28 03:50:30;;;;;;;;;8.80;8.80;;;;;31.00;60.75;98905.22;4914776;29;8865;-72
2021/05/28 03:53:02;;;;;;;;;9.20;9.20;;;;;31.00;61.58;98902.50;4915365;29;9026;-74
2021/05/28 03:55:31;;;;;;;;;8.80;8.80;;;;;31.02;60.46;98897.41;4913771;29;8863;-74
2021/05/28 03:58:00;;;;;;;;;6.40;6.40;;;;;31.13;59.50;98895.41;4912002;29;9009;-73
2021/05/28 04:00:29;;;;;;;;;8.40;8.40;;;;;31.17;61.15;98900.06;4914113;29;8859;-72
2021/05/28 04:02:58;;;;;;;;;6.80;6.80;;;;;31.22;60.41;98902.34;4911400;29;8855;-72
2021/05/28 04:05:27;;;;;;;;;6.80;6.60;;;;;31.30;60.87;98885.53;4909524;29;8866;-73
2021/05/28 04:07:58;;;;;;;;;8.40;8.40;;;;;31.36;61.30;98881.19;4914269;29;8878;-72
2021/05/28 04:10:30;;;;;;;;;9.60;9.60;;;;;31.30;60.83;98866.44;4913670;29;8886;-73
2021/05/28 04:12:59;;;;;;;;;8.40;8.40;;;;;31.38;61.04;98883.53;4915140;29;8851;-70
2021/05/28 04:15:27;;;;;;;;;9.40;8.60;;;;;31.41;60.97;98880.00;4914565;29;8890;-71
2021/05/28 04:17:57;;;;;;;;;8.40;8.40;;;;;31.47;60.41;98878.38;4915129;29;9573;-72
2021/05/28 04:20:25;;;;;;;;;8.00;8.00;;;;;31.54;60.20;98861.97;4915016;29;8875;-73
2021/05/28 04:22:54;;;;;;;;;7.60;6.40;;;;;31.74;59.15;98875.81;4915330;29;8863;-73
2021/05/28 04:25:23;;;;;;;;;5.00;5.00;;;;;31.90;59.37;98870.59;4911833;29;8875;-72
2021/05/28 04:27:52;;;;;;;;;6.40;6.40;;;;;31.98;57.52;98857.63;4907108;29;8970;-73
2021/05/28 04:30:25;;;;;;;;;6.00;6.00;;;;;32.16;58.45;98862.88;4913727;29;8914;-73
2021/05/28 04:32:54;;;;;;;;;4.20;4.20;;;;;32.23;58.66;98860.09;4912337;29;8863;-73
2021/05/28 04:35:23;;;;;;;;;5.80;5.80;;;;;32.24;58.87;98846.03;4910836;29;8878;-72
2021/05/28 04:37:52;;;;;;;;;6.60;6.40;;;;;32.37;58.46;98855.25;4913509;29;8862;-74
2021/05/28 04:40:21;;;;;;;;;5.60;5.60;;;;;32.36;57.58;98839.25;4913351;29;8870;-73
2021/05/28 04:42:50;;;;;;;;;10.00;8.20;;;;;32.37;57.30;98825.19;4914099;29;8883;-72
2021/05/28 04:45:19;;;;;;;;;4.20;4.20;;;;;32.48;57.05;98832.47;4912564;29;8871;-72
2021/05/28 04:47:49;;;;;;;;;8.40;8.40;;;;;32.58;57.33;98840.50;4914069;29;8973;-72
2021/05/28 04:50:17;;;;;;;;;4.20;3.80;;;;;32.53;57.66;98826.53;4915319;29;8893;-71
2021/05/28 04:52:46;;;;;;;;;4.80;4.80;;;;;32.64;57.27;98838.06;4915169;29;8898;-72
2021/05/28 04:55:17;;;;;;;;;5.60;5.60;;;;;32.69;57.46;98834.88;4913993;29;8861;-71
2021/05/28 04:57:46;;;;;;;;;4.00;4.00;;;;;32.77;55.78;98830.88;4912143;29;8874;-71
2021/05/28 05:00:16;;;;;;;;;5.80;4.80;;;;;32.84;56.14;98830.00;4913914;29;8981;-71
2021/05/28 05:02:45;;;;;;;;;4.40;4.40;;;;;32.87;57.60;98818.25;4914405;29;8851;-71
2021/05/28 05:05:16;;;;;;;;;3.60;3.60;;;;;32.94;58.13;98823.59;4914874;29;8854;-71
2021/05/28 05:07:46;;;;;;;;;5.80;5.80;;;;;32.88;56.27;98814.31;4910983;29;8855;-71
2021/05/28 05:10:16;;;;;;;;;5.80;5.80;;;;;32.89;56.10;98796.75;4912557;29;9040;-71
2021/05/28 05:12:45;;;;;;;;;6.00;6.00;;;;;32.95;55.55;98808.75;4913075;29;8835;-71
2021/05/28 05:15:15;;;;;;;;;6.80;6.80;;;;;33.04;55.68;98800.78;4913580;29;8873;-70
2021/05/28 05:17:45;;;;;;;;;4.60;4.60;;;;;33.21;56.11;98790.75;4912929;29;9565;-70
2021/05/28 05:20:15;;;;;;;;;5.60;5.60;;;;;33.29;56.09;98781.25;4912766;29;8954;-71
2021/05/28 05:22:43;;;;;;;;;5.60;5.60;;;;;33.41;56.36;98777.91;4914122;29;9005;-71
2021/05/28 05:25:13;;;;;;;;;4.60;4.60;;;;;33.46;55.58;98766.50;4913288;29;8854;-71
2021/05/28 05:27:42;;;;;;;;;6.00;6.00;;;;;33.50;55.32;98769.94;4913200;29;8867;-71
2021/05/28 05:30:11;;;;;;;;;3.80;3.80;;;;;33.47;56.51;98762.56;4913215;29;8891;-70
2021/05/28 05:32:40;;;;;;;;;4.40;4.40;;;;;33.47;54.74;98750.84;4912787;29;8882;-70
2021/05/28 05:35:10;;;;;;;;;5.00;5.00;;;;;33.43;54.38;98739.97;4906215;29;8874;-70
2021/05/28 05:37:40;;;;;;;;;4.00;4.00;;;;;33.59;53.52;98736.53;4906114;29;8871;-70
2021/05/28 05:40:10;;;;;;;;;4.20;4.20;;;;;33.70;53.68;98723.41;4904879;29;8868;-71
2021/05/28 05:42:41;;;;;;;;;5.60;5.60;;;;;33.82;53.92;98720.03;4916067;29;8870;-70
2021/05/28 05:45:11;;;;;;;;;6.00;6.00;;;;;33.83;53.32;98698.91;4914828;29;8964;-71
2021/05/28 05:47:42;;;;;;;;;4.20;4.20;;;;;33.90;53.97;98690.56;4916116;29;8889;-70
2021/05/28 05:50:12;;;;;;;;;6.00;6.00;;;;;34.04;52.51;98695.72;4911269;29;9004;-71
2021/05/28 05:52:40;;;;;;;;;4.60;4.60;;;;;34.07;53.03;98677.66;4913404;29;8969;-72
2021/05/28 05:55:10;;;;;;;;;4.00;4.00;;;;;34.03;53.08;98678.53;4916641;29;8870;-73
2021/05/28 05:57:39;;;;;;;;;3.20;3.20;;;;;33.95;55.73;98676.38;4916148;29;8898;-71
2021/05/28 06:00:09;;;;;;;;;5.00;5.00;;;;;33.84;53.66;98673.88;4916055;29;8867;-72
2021/05/28 06:02:38;;;;;;;;;6.20;6.20;;;;;33.68;54.13;98669.13;4916121;29;8891;-72
2021/05/28 06:05:08;;;;;;;;;4.20;4.20;;;;;33.65;54.68;98664.50;4909293;29;8879;-72
2021/05/28 06:07:37;;;;;;;;;7.40;7.40;;;;;33.63;53.81;98655.94;4915539;29;8957;-73
2021/05/28 06:10:06;;;;;;;;;7.00;7.00;;;;;33.68;55.19;98649.22;4916180;29;8912;-72
2021/05/28 06:12:35;;;;;;;;;5.60;5.60;;;;;33.78;54.15;98641.97;4916014;29;8858;-71
2021/05/28 06:15:06;;;;;;;;;5.00;5.00;;;;;33.95;53.47;98649.00;4916180;29;8876;-71
2021/05/28 06:17:35;;;;;;;;;4.40;4.40;;;;;34.02;53.74;98644.13;4915907;29;8867;-71
2021/05/28 06:20:05;;;;;;;;;4.00;4.00;;;;;34.11;52.38;98650.97;4916029;29;8862;-71
2021/05/28 06:22:34;;;;;;;;;4.80;4.80;;;;;34.08;53.16;98646.38;4906781;29;9558;-71
2021/05/28 06:25:03;;;;;;;;;5.60;5.60;;;;;34.14;52.44;98650.91;4908771;29;8836;-70
2021/05/28 06:27:32;;;;;;;;;3.40;3.40;;;;;34.14;51.79;98644.66;4910193;29;9629;-71
2021/05/28 06:30:02;;;;;;;;;4.00;4.00;;;;;34.07;55.73;98633.88;4913049;29;8859;-71
2021/05/28 06:32:30;;;;;;;;;4.00;4.00;;;;;34.05;55.94;98631.56;4913040;29;9592;-70
2021/05/28 06:34:59;;;;;;;;;3.20;3.20;;;;;33.84;53.17;98624.63;4911943;29;8878;-71
2021/05/28 06:37:28;;;;;;;;;4.00;3.40;;;;;33.62;53.69;98604.41;4913043;29;8937;-71
2021/05/28 06:39:57;;;;;;;;;3.80;3.80;;;;;33.72;52.61;98617.06;4910426;29;8859;-70
2021/05/28 06:42:26;;;;;;;;;3.20;3.20;;;;;33.67;52.65;98598.44;4913706;29;8859;-71
2021/05/28 06:44:54;;;;;;;;;1.80;1.80;;;;;33.77;51.74;98611.09;4913734;29;8890;-71
2021/05/28 06:47:25;;;;;;;;;6.20;6.20;;;;;33.87;53.02;98606.56;4913541;29;8958;-71
2021/05/28 06:49:55;;;;;;;;;5.40;5.20;;;;;33.93;55.97;98608.38;4912878;29;9588;-73
2021/05/28 06:52:24;;;;;;;;;3.00;3.00;;;;;33.83;55.63;98592.97;4913318;29;8855;-73
2021/05/28 06:54:53;;;;;;;;;3.80;3.80;;;;;33.70;56.03;98590.13;4914225;29;8859;-73
2021/05/28 06:57:24;;;;;;;;;2.60;2.60;;;;;33.48;55.65;98582.84;4914635;29;8850;-72
2021/05/28 06:59:53;;;;;;;;;3.80;3.80;;;;;33.33;55.80;98583.13;4914015;29;8901;-72
2021/05/28 07:02:23;;;;;;;;;2.00;2.00;;;;;33.22;55.06;98573.59;4913929;29;8881;-72
2021/05/28 07:04:52;;;;;;;;;2.80;2.80;;;;;33.17;55.85;98563.94;4903338;29;8901;-72
2021/05/28 07:07:20;;;;;;;;;4.40;4.40;;;;;33.20;53.88;98560.34;4894759;29;8971;-71
2021/05/28 07:09:49;;;;;;;;;3.80;3.80;;;;;33.27;55.28;98562.16;4894420;29;8858;-74
2021/05/28 07:12:19;;;;;;;;;4.00;4.00;;;;;33.33;53.69;98564.00;4902903;29;9613;-75
2021/05/28 07:14:48;;;;;;;;;4.00;4.00;;;;;33.35;53.66;98547.19;4897229;29;8870;-72
2021/05/28 07:17:17;;;;;;;;;4.00;4.00;;;;;33.52;52.12;98556.94;4902265;29;8930;-73
2021/05/28 07:20:09;;;;;;;;;1.80;1.80;;;;;33.78;50.91;98562.63;4910723;29;8827;-72
2021/05/28 07:22:38;;;;;;;;;4.40;4.40;;;;;33.89;52.15;98543.97;4916526;29;8881;-73
2021/05/28 07:25:09;;;;;;;;;2.00;2.00;;;;;34.13;52.04;98547.31;4914551;29;8868;-74
2021/05/28 07:27:38;;;;;;;;;3.00;3.00;;;;;34.25;52.40;98541.13;4912916;29;8847;-71
2021/05/28 07:30:08;;;;;;;;;2.60;2.60;;;;;34.44;54.01;98544.97;4912539;29;9629;-72
2021/05/28 07:32:38;;;;;;;;;4.00;4.00;;;;;34.27;50.28;98501.16;4915295;29;8874;-72
2021/05/28 07:35:08;;;;;;;;;4.20;4.20;;;;;34.47;50.94;98527.69;4915688;29;8867;-72
2021/05/28 07:37:38;;;;;;;;;3.60;3.60;;;;;34.55;51.36;98524.31;4914957;29;8843;-72
2021/05/28 07:40:09;;;;;;;;;1.00;1.00;;;;;34.61;50.61;98517.09;4914647;29;8878;-71
2021/05/28 07:42:38;;;;;;;;;14.80;14.80;;;;;34.68;50.34;98518.88;4914492;29;8858;-72
2021/05/28 07:45:08;;;;;;;;;3.00;3.00;;;;;34.71;53.57;98511.75;4916220;29;8941;-74
2021/05/28 07:47:36;;;;;;;;;4.00;4.00;;;;;34.59;50.70;98516.75;4910609;29;8956;-72
2021/05/28 07:50:07;;;;;;;;;3.80;3.80;;;;;34.46;51.59;98509.72;4908949;29;8865;-73
2021/05/28 07:52:36;;;;;;;;;3.20;3.20;;;;;34.37;51.70;98504.84;4913863;29;9729;-72
2021/05/28 07:55:05;;;;;;;;;4.00;4.00;;;;;34.29;52.63;98493.28;4915241;29;8863;-72
2021/05/28 07:57:39;;;;;;;;;4.00;4.00;;;;;34.28;52.05;98494.50;4913294;29;8867;-73
2021/05/28 08:00:09;;;;;;;;;4.00;4.00;;;;;34.24;51.19;98490.31;4909448;29;8978;-72
2021/05/28 08:02:39;;;;;;;;;2.60;2.60;;;;;34.26;52.24;98480.47;4913624;29;8871;-75
2021/05/28 08:05:09;;;;;;;;;4.20;4.20;;;;;34.29;51.18;98476.88;4914854;29;9502;-74
2021/05/28 08:07:38;;;;;;;;;4.60;4.60;;;;;34.41;51.61;98469.91;4915740;29;8971;-75
2021/05/28 08:10:09;;;;;;;;;3.20;3.20;;;;;34.46;52.57;98452.19;4915261;29;8851;-76
2021/05/28 08:12:37;;;;;;;;;3.40;3.40;;;;;34.66;51.89;98467.25;4913964;29;8879;-74
2021/05/28 08:15:07;;;;;;;;;3.40;3.40;;;;;34.72;49.35;98455.75;4904836;29;8865;-75
2021/05/28 08:17:36;;;;;;;;;3.00;3.00;;;;;34.89;50.23;98452.53;4913183;29;8859;-78
2021/05/28 08:20:06;;;;;;;;;3.00;3.00;;;;;34.94;49.78;98432.78;4929756;29;8866;-75
2021/05/28 08:22:34;;;;;;;;;5.20;5.20;;;;;35.21;48.30;98445.28;4914765;29;8898;-77
2021/05/28 08:25:04;;;;;;;;;3.00;3.00;;;;;35.38;47.26;98443.97;4911100;29;8866;-75
2021/05/28 08:27:34;;;;;;;;;4.00;4.00;;;;;35.39;50.82;98434.53;4908777;29;8911;-76
2021/05/28 08:30:05;;;;;;;;;7.40;7.40;;;;;35.35;52.69;98427.63;4912661;29;8877;-74
2021/05/28 08:32:34;;;;;;;;;4.00;4.00;;;;;35.22;50.48;98436.59;4913615;29;8979;-74
2021/05/28 08:35:03;;;;;;;;;5.00;5.00;;;;;35.07;50.87;98446.50;4914018;29;8875;-75
2021/05/28 08:37:32;;;;;;;;;3.00;3.00;;;;;35.03;51.50;98437.63;4913136;29;8887;-74
2021/05/28 08:40:07;;;;;;;;;3.00;3.00;;;;;35.08;52.66;98452.75;4912722;29;8882;-75
2021/05/28 08:42:36;;;;;;;;;4.00;4.00;;;;;35.01;52.53;98447.50;4916282;29;8931;-74
2021/05/28 08:45:07;;;;;;;;;4.00;4.00;;;;;34.83;50.57;98446.06;4905183;29;8871;-74
2021/05/28 08:47:40;;;;;;;;;2.60;2.60;;;;;34.71;50.26;98457.72;4913242;29;8870;-72
2021/05/28 08:50:11;;;;;;;;;2.80;2.80;;;;;34.63;49.32;98454.44;4915919;29;8981;-78
2021/05/28 08:52:40;;;;;;;;;2.60;2.60;;;;;34.57;49.71;98441.69;4915296;29;8867;-75
2021/05/28 08:55:10;;;;;;;;;3.00;3.00;;;;;34.70;48.79;98439.75;4912693;29;8906;-74
2021/05/28 08:57:39;;;;;;;;;2.60;2.60;;;;;34.82;49.19;98446.50;4914646;29;9593;-72
2021/05/28 09:00:09;;;;;;;;;2.00;2.00;;;;;34.87;51.13;98438.50;4914719;29;8866;-74
2021/05/28 09:02:40;;;;;;;;;3.40;3.40;;;;;34.80;48.22;98418.72;4912915;29;8859;-76
2021/05/28 09:05:14;;;;;;;;;1.60;1.60;;;;;35.03;48.00;98434.13;4913725;29;8877;-76
2021/05/28 09:07:55;;;;;;;;;3.80;3.80;;;;;35.20;52.18;98443.72;4915087;29;8937;-74
2021/05/28 09:10:27;;;;;;;;;2.40;2.40;;;;;35.19;50.71;98445.72;4914850;29;8871;-74
2021/05/28 09:13:15;;;;;;;;;3.60;3.60;;;;;35.11;49.12;98443.63;4912487;29;9621;-74
2021/05/28 09:15:46;;;;;;;;;2.00;2.00;;;;;35.06;49.18;98433.25;4915113;29;8867;-72
2021/05/28 09:18:17;;;;;;;;;6.00;6.00;;;;;35.14;49.07;98431.78;4912905;29;8855;-72
2021/05/28 09:20:55;;;;;;;;;2.00;2.00;;;;;35.25;50.80;98443.94;4913947;29;8862;-78
2021/05/28 09:23:24;;;;;;;;;3.00;2.60;;;;;35.21;48.74;98434.31;4912840;29;8851;-74
2021/05/28 09:26:03;;;;;;;;;2.20;2.20;;;;;35.16;47.65;98430.13;4912004;29;8871;-74
2021/05/28 09:28:48;;;;;;;;;2.40;2.40;;;;;35.20;48.20;98439.00;4911594;29;8851;-75
2021/05/28 09:31:23;;;;;;;;;2.60;2.60;;;;;35.24;48.85;98433.41;4914178;29;8851;-74
2021/05/28 09:33:54;;;;;;;;;4.00;4.00;;;;;35.36;48.77;98437.38;4913882;29;8867;-76
2021/05/28 09:36:33;;;;;;;;;2.60;2.60;;;;;35.45;48.66;98440.22;4912053;29;8889;-73
2021/05/28 09:39:05;;;;;;;;;2.80;2.80;;;;;35.51;49.49;98430.22;4912378;29;8859;-75
2021/05/28 09:41:43;;;;;;;;;2.60;2.60;;;;;35.55;49.56;98428.16;4912944;29;8867;-72
2021/05/28 09:44:18;;;;;;;;;3.20;3.20;;;;;35.57;50.95;98436.69;4910055;29;8875;-74
2021/05/28 09:47:13;;;;;;;;;3.00;3.00;;;;;35.48;48.14;98437.38;4910602;29;8870;-74
2021/05/28 09:49:44;;;;;;;;;3.20;3.20;;;;;35.38;47.60;98443.19;4911929;29;8883;-74
2021/05/28 09:52:19;;;;;;;;;3.60;3.60;;;;;35.27;49.31;98447.03;4910307;29;10242;-75
2021/05/28 09:54:58;;;;;;;;;3.00;3.00;;;;;35.27;49.50;98451.75;4910578;29;8855;-74
2021/05/28 09:57:37;;;;;;;;;2.40;2.40;;;;;35.14;47.95;98456.47;4912983;29;8918;-71
2021/05/28 10:00:12;;;;;;;;;2.00;2.00;;;;;35.02;48.79;98458.03;4911988;29;8847;-72
2021/05/28 10:02:45;;;;;;;;;4.00;4.00;;;;;34.91;48.64;98460.31;4908644;29;8846;-71
2021/05/28 10:05:25;;;;;;;;;3.60;3.60;;;;;34.79;48.61;98448.09;4907863;29;8847;-71
2021/05/28 10:07:55;;;;;;;;;2.40;2.40;;;;;34.80;49.41;98451.59;4914243;29;8930;-71
2021/05/28 10:10:25;;;;;;;;;3.40;3.40;;;;;34.78;52.02;98460.25;4906062;29;8860;-71
2021/05/28 10:12:54;;;;;;;;;4.20;4.20;;;;;34.51;49.97;98427.78;4908134;29;8873;-72
2021/05/28 10:15:23;;;;;;;;;3.20;3.20;;;;;34.76;50.95;98454.44;4913663;29;8859;-71
2021/05/28 10:17:53;;;;;;;;;2.80;2.80;;;;;34.71;49.09;98452.25;4905856;29;8863;-73
2021/05/28 10:20:24;;;;;;;;;3.20;3.20;;;;;34.75;49.75;98460.38;4905864;29;8830;-71
2021/05/28 10:22:53;;;;;;;;;3.00;3.00;;;;;34.69;49.96;98462.88;4905850;29;8892;-71
2021/05/28 10:25:23;;;;;;;;;3.60;3.60;;;;;34.56;50.07;98459.34;4905058;29;8865;-72
2021/05/28 10:27:54;;;;;;;;;5.00;5.00;;;;;34.49;49.37;98474.00;4906987;29;8857;-73
2021/05/28 10:30:34;;;;;;;;;3.20;3.20;;;;;34.33;50.24;98463.09;4905881;29;8837;-71
2021/05/28 10:33:18;;;;;;;;;4.60;4.60;;;;;34.26;50.11;98479.69;4904527;29;8865;-71
2021/05/28 10:35:50;;;;;;;;;3.80;3.80;;;;;34.16;50.15;98483.47;4897348;29;8869;-71
2021/05/28 10:38:31;;;;;;;;;3.40;3.40;;;;;34.12;49.76;98483.56;4904457;29;8858;-71
2021/05/28 10:41:00;;;;;;;;;3.40;3.40;;;;;34.11;49.48;98479.31;4912487;29;8847;-71
2021/05/28 10:43:30;;;;;;;;;3.60;3.60;;;;;34.11;49.37;98482.03;4914815;29;8855;-71
2021/05/28 10:46:08;;;;;;;;;3.00;3.00;;;;;34.09;50.07;98486.41;4911495;29;8859;-71
2021/05/28 10:48:44;;;;;;;;;6.60;6.60;;;;;34.06;49.85;98484.53;4913450;29;8923;-72
2021/05/28 10:51:15;;;;;;;;;3.60;3.60;;;;;34.02;50.14;98490.88;4903923;29;8867;-71
2021/05/28 10:53:53;;;;;;;;;4.20;4.20;;;;;34.01;49.60;98485.81;4903619;29;8893;-71
2021/05/28 10:56:36;;;;;;;;;1.00;1.00;;;;;33.97;49.94;98474.97;4904223;29;8849;-71
2021/05/28 10:59:11;;;;;;;;;2.00;2.00;;;;;34.02;50.93;98479.16;4911476;29;8859;-70
2021/05/28 11:01:46;;;;;;;;;4.20;4.20;;;;;34.02;50.76;98482.66;4913642;29;8870;-71
2021/05/28 11:04:17;;;;;;;;;4.20;4.20;;;;;34.01;49.59;98489.31;4913802;29;8875;-70
2021/05/28 11:06:59;;;;;;;;;4.60;4.60;;;;;34.03;49.27;98488.91;4911539;29;8847;-71
2021/05/28 11:09:39;;;;;;;;;4.20;4.20;;;;;33.95;48.78;98487.53;4913564;29;8862;-71
2021/05/28 11:12:12;;;;;;;;;3.20;3.20;;;;;34.01;49.33;98504.97;4911855;29;8922;-71
2021/05/28 11:15:08;;;;;;;;;3.80;3.80;;;;;33.93;49.78;98503.63;4912904;29;9640;-71
2021/05/28 11:17:51;;;;;;;;;4.00;4.00;;;;;33.94;50.35;98522.34;4911988;29;8835;-71
2021/05/28 11:20:31;;;;;;;;;2.20;2.20;;;;;33.84;49.54;98519.88;4912048;29;8886;-71
2021/05/28 11:23:07;;;;;;;;;4.00;4.00;;;;;33.82;51.11;98536.72;4911043;29;9712;-70
2021/05/28 11:25:47;;;;;;;;;4.60;4.60;;;;;33.71;52.11;98536.19;4914406;29;10077;-71
2021/05/28 11:28:16;;;;;;;;;4.60;4.60;;;;;33.55;52.25;98525.25;4911074;29;8903;-71
2021/05/28 11:30:52;;;;;;;;;5.60;5.60;;;;;33.51;51.69;98539.00;4910324;29;8867;-72
2021/05/28 11:33:35;;;;;;;;;3.40;3.40;;;;;33.50;51.23;98545.66;4909755;29;8831;-71
2021/05/28 11:36:23;;;;;;;;;5.40;5.40;;;;;33.41;52.09;98537.28;4909966;29;8859;-71
2021/05/28 11:39:02;;;;;;;;;4.40;4.40;;;;;33.35;51.35;98541.72;4907908;29;8870;-70
2021/05/28 11:41:45;;;;;;;;;4.40;4.40;;;;;33.32;51.76;98546.06;4909665;29;8895;-71
2021/05/28 11:44:22;;;;;;;;;5.60;5.60;;;;;33.28;51.54;98541.84;4904813;29;8909;-70
2021/05/28 11:46:53;;;;;;;;;5.00;5.00;;;;;33.22;52.50;98554.47;4924074;29;8946;-70
2021/05/28 11:49:23;;;;;;;;;4.00;4.00;;;;;33.07;52.47;98543.06;4911316;29;8847;-70
2021/05/28 11:52:06;;;;;;;;;6.00;6.00;;;;;33.08;52.71;98561.75;4903789;29;8839;-70
2021/05/28 11:54:37;;;;;;;;;11.80;9.20;;;;;33.03;51.66;98569.69;4905369;29;8952;-70
2021/05/28 11:57:12;;;;;;;;;6.80;6.80;;;;;32.95;53.23;98579.22;4903719;29;8873;-70
2021/05/28 11:59:51;;;;;;;;;6.60;6.60;;;;;32.82;52.60;98565.41;4903353;29;8843;-72